sensor_id;sensor_type;location;lat;lon;timestamp;pressure;altitude;pressure_sealevel;temperature;humidity
30949;BME280;17637;51.984;21.208;2022-10-16T00:01:22;100238.69;;;12.93;70.09
30949;BME280;17637;51.984;21.208;2022-10-16T00:03:50;100084.69;;;11.92;70.19
30949;BME280;17637;51.984;21.208;2022-10-16T00:06:19;100295.28;;;13.20;69.75
30949;BME280;17637;51.984;21.208;2022-10-16T00:08:47;100405.25;;;13.90;70.00
30949;BME280;17637;51.984;21.208;2022-10-16T00:11:15;100411.50;;;13.87;70.05
30949;BME280;17637;51.984;21.208;2022-10-16T00:13:44;100082.94;;;11.71;69.94
30949;BME280;17637;51.984;21.208;2022-10-16T00:16:12;100366.75;;;13.49;70.28
30949;BME280;17637;51.984;21.208;2022-10-16T00:18:40;100124.59;;;12.01;69.82
30949;BME280;17637;51.984;21.208;2022-10-16T00:21:12;100225.03;;;12.66;70.38
30949;BME280;17637;51.984;21.208;2022-10-16T00:23:39;99738.88;;;9.83;70.22
30949;BME280;17637;51.984;21.208;2022-10-16T00:26:09;100395.28;;;13.77;70.40
30949;BME280;17637;51.984;21.208;2022-10-16T00:28:37;99617.56;;;9.02;70.25
30949;BME280;17637;51.984;21.208;2022-10-16T00:31:06;100399.97;;;13.71;70.75
30949;BME280;17637;51.984;21.208;2022-10-16T00:33:35;100402.56;;;13.72;70.87
30949;BME280;17637;51.984;21.208;2022-10-16T00:36:03;100250.94;;;12.73;70.70
30949;BME280;17637;51.984;21.208;2022-10-16T00:38:31;100399.13;;;13.70;70.69
30949;BME280;17637;51.984;21.208;2022-10-16T00:40:58;100183.34;;;12.38;71.14
30949;BME280;17637;51.984;21.208;2022-10-16T00:43:34;100287.28;;;13.03;70.88
30949;BME280;17637;51.984;21.208;2022-10-16T00:46:05;100271.03;;;12.74;70.71
30949;BME280;17637;51.984;21.208;2022-10-16T00:48:32;100231.38;;;12.60;70.86
30949;BME280;17637;51.984;21.208;2022-10-16T00:50:59;100137.81;;;11.98;70.98
30949;BME280;17637;51.984;21.208;2022-10-16T00:53:27;100326.91;;;12.98;71.11
30949;BME280;17637;51.984;21.208;2022-10-16T00:55:54;100270.19;;;12.74;71.00
30949;BME280;17637;51.984;21.208;2022-10-16T00:58:21;100195.19;;;12.27;71.15
30949;BME280;17637;51.984;21.208;2022-10-16T01:00:49;100432.91;;;13.60;71.57
30949;BME280;17637;51.984;21.208;2022-10-16T01:03:28;100435.69;;;13.57;71.81
30949;BME280;17637;51.984;21.208;2022-10-16T01:14:22;100067.97;;;11.32;71.38
30949;BME280;17637;51.984;21.208;2022-10-16T01:16:57;100436.59;;;13.56;71.08
30949;BME280;17637;51.984;21.208;2022-10-16T01:19:44;100339.28;;;12.96;71.18
30949;BME280;17637;51.984;21.208;2022-10-16T01:22:19;99649.63;;;8.82;70.72
30949;BME280;17637;51.984;21.208;2022-10-16T01:24:49;100423.56;;;13.53;71.00
30949;BME280;17637;51.984;21.208;2022-10-16T01:27:26;100268.28;;;12.57;70.98
30949;BME280;17637;51.984;21.208;2022-10-16T01:32:44;100072.38;;;11.32;70.59
30949;BME280;17637;51.984;21.208;2022-10-16T01:35:26;100435.09;;;13.51;71.19
30949;BME280;17637;51.984;21.208;2022-10-16T01:38:03;100154.97;;;11.84;70.86
30949;BME280;17637;51.984;21.208;2022-10-16T01:40:36;100442.00;;;13.53;70.96
30949;BME280;17637;51.984;21.208;2022-10-16T01:43:08;100453.44;;;13.52;70.74
30949;BME280;17637;51.984;21.208;2022-10-16T01:45:37;100017.25;;;10.91;70.69
30949;BME280;17637;51.984;21.208;2022-10-16T01:48:05;100460.50;;;13.52;70.68
30949;BME280;17637;51.984;21.208;2022-10-16T01:50:37;100450.81;;;13.52;70.57
30949;BME280;17637;51.984;21.208;2022-10-16T01:53:07;100241.63;;;12.25;70.74
30949;BME280;17637;51.984;21.208;2022-10-16T01:55:38;100451.00;;;13.48;70.59
30949;BME280;17637;51.984;21.208;2022-10-16T01:58:08;100452.81;;;13.47;70.78
30949;BME280;17637;51.984;21.208;2022-10-16T02:00:39;100292.66;;;12.40;70.57
30949;BME280;17637;51.984;21.208;2022-10-16T02:03:09;99488.47;;;7.71;70.14
30949;BME280;17637;51.984;21.208;2022-10-16T02:05:57;100219.94;;;12.00;70.30
30949;BME280;17637;51.984;21.208;2022-10-16T02:08:28;100444.63;;;13.53;70.58
30949;BME280;17637;51.984;21.208;2022-10-16T02:10:57;100065.34;;;11.12;70.56
30949;BME280;17637;51.984;21.208;2022-10-16T02:13:32;100435.81;;;13.54;70.51
30949;BME280;17637;51.984;21.208;2022-10-16T02:16:00;100389.19;;;13.17;70.41
30949;BME280;17637;51.984;21.208;2022-10-16T02:18:28;99083.31;;;5.24;69.92
30949;BME280;17637;51.984;21.208;2022-10-16T02:21:01;100439.34;;;13.53;70.69
30949;BME280;17637;51.984;21.208;2022-10-16T02:23:45;100113.50;;;11.51;70.54
30949;BME280;17637;51.984;21.208;2022-10-16T02:26:18;100239.66;;;12.30;70.73
30949;BME280;17637;51.984;21.208;2022-10-16T02:28:53;100340.69;;;12.85;70.96
30949;BME280;17637;51.984;21.208;2022-10-16T02:31:26;100421.69;;;13.36;70.80
30949;BME280;17637;51.984;21.208;2022-10-16T02:33:58;99832.31;;;9.79;70.64
30949;BME280;17637;51.984;21.208;2022-10-16T02:36:26;100415.56;;;13.15;70.82
30949;BME280;17637;51.984;21.208;2022-10-16T02:38:54;100084.63;;;11.31;70.64
30949;BME280;17637;51.984;21.208;2022-10-16T02:41:22;99737.94;;;9.18;70.66
30949;BME280;17637;51.984;21.208;2022-10-16T02:43:50;100393.81;;;13.12;70.76
30949;BME280;17637;51.984;21.208;2022-10-16T02:46:17;100299.22;;;12.50;70.86
30949;BME280;17637;51.984;21.208;2022-10-16T02:48:45;99893.59;;;9.72;70.70
30949;BME280;17637;51.984;21.208;2022-10-16T02:51:12;100452.13;;;13.42;70.95
30949;BME280;17637;51.984;21.208;2022-10-16T02:53:39;100250.81;;;12.15;71.04
30949;BME280;17637;51.984;21.208;2022-10-16T02:56:06;100451.66;;;13.32;71.48
30949;BME280;17637;51.984;21.208;2022-10-16T02:58:34;100230.06;;;11.88;71.09
30949;BME280;17637;51.984;21.208;2022-10-16T03:01:00;100304.41;;;12.52;71.09
30949;BME280;17637;51.984;21.208;2022-10-16T03:03:27;99666.00;;;8.64;70.49
30949;BME280;17637;51.984;21.208;2022-10-16T03:05:54;100344.59;;;12.74;70.94
30949;BME280;17637;51.984;21.208;2022-10-16T03:08:22;100281.81;;;12.27;70.90
30949;BME280;17637;51.984;21.208;2022-10-16T03:10:52;100313.09;;;12.54;70.91
30949;BME280;17637;51.984;21.208;2022-10-16T03:13:19;100338.88;;;12.65;70.69
30949;BME280;17637;51.984;21.208;2022-10-16T03:15:47;99975.66;;;10.39;70.83
30949;BME280;17637;51.984;21.208;2022-10-16T03:18:14;100463.53;;;13.42;70.87
30949;BME280;17637;51.984;21.208;2022-10-16T03:20:42;100226.56;;;11.88;70.77
30949;BME280;17637;51.984;21.208;2022-10-16T03:23:09;100310.19;;;12.40;70.65
30949;BME280;17637;51.984;21.208;2022-10-16T03:25:37;100471.22;;;13.47;70.86
30949;BME280;17637;51.984;21.208;2022-10-16T03:28:04;100473.16;;;13.42;70.88
30949;BME280;17637;51.984;21.208;2022-10-16T03:30:32;99909.81;;;10.04;70.88
30949;BME280;17637;51.984;21.208;2022-10-16T03:32:59;100337.22;;;12.42;70.57
30949;BME280;17637;51.984;21.208;2022-10-16T03:35:26;99389.78;;;6.35;70.20
30949;BME280;17637;51.984;21.208;2022-10-16T03:37:52;100296.59;;;12.30;70.62
30949;BME280;17637;51.984;21.208;2022-10-16T03:40:20;99336.31;;;6.54;70.21
30949;BME280;17637;51.984;21.208;2022-10-16T03:42:47;100258.41;;;12.01;70.65
30949;BME280;17637;51.984;21.208;2022-10-16T03:45:14;99558.25;;;7.88;70.50
30949;BME280;17637;51.984;21.208;2022-10-16T03:47:41;100359.91;;;12.65;70.87
30949;BME280;17637;51.984;21.208;2022-10-16T03:50:08;100107.97;;;11.15;70.81
30949;BME280;17637;51.984;21.208;2022-10-16T03:52:35;100239.44;;;11.94;70.92
30949;BME280;17637;51.984;21.208;2022-10-16T03:55:02;100472.34;;;13.19;70.80
30949;BME280;17637;51.984;21.208;2022-10-16T03:57:30;100365.09;;;12.66;71.10
30949;BME280;17637;51.984;21.208;2022-10-16T03:59:56;100364.56;;;12.58;70.85
30949;BME280;17637;51.984;21.208;2022-10-16T04:02:24;100480.09;;;13.22;71.11
30949;BME280;17637;51.984;21.208;2022-10-16T04:04:50;100368.25;;;12.54;71.25
30949;BME280;17637;51.984;21.208;2022-10-16T04:07:18;100462.50;;;13.04;71.28
30949;BME280;17637;51.984;21.208;2022-10-16T04:09:45;100295.13;;;12.23;71.07
30949;BME280;17637;51.984;21.208;2022-10-16T04:12:12;99670.22;;;8.43;70.75
30949;BME280;17637;51.984;21.208;2022-10-16T04:14:39;100324.47;;;12.32;71.33
30949;BME280;17637;51.984;21.208;2022-10-16T04:17:06;100241.56;;;11.84;71.19
30949;BME280;17637;51.984;21.208;2022-10-16T04:19:32;100352.31;;;12.36;71.51
30949;BME280;17637;51.984;21.208;2022-10-16T04:21:59;100303.59;;;12.07;71.48
30949;BME280;17637;51.984;21.208;2022-10-16T04:24:26;100245.69;;;11.68;71.52
30949;BME280;17637;51.984;21.208;2022-10-16T04:26:53;100498.56;;;13.00;71.61
30949;BME280;17637;51.984;21.208;2022-10-16T04:29:20;100064.88;;;10.56;71.72
30949;BME280;17637;51.984;21.208;2022-10-16T04:31:47;100069.31;;;10.54;71.53
30949;BME280;17637;51.984;21.208;2022-10-16T04:34:14;100519.22;;;13.10;72.15
30949;BME280;17637;51.984;21.208;2022-10-16T04:36:41;100370.31;;;12.24;72.39
30949;BME280;17637;51.984;21.208;2022-10-16T04:39:08;100545.03;;;13.00;72.74
30949;BME280;17637;51.984;21.208;2022-10-16T04:41:35;100447.03;;;12.32;72.91
30949;BME280;17637;51.984;21.208;2022-10-16T04:44:02;100337.16;;;11.77;72.91
30949;BME280;17637;51.984;21.208;2022-10-16T04:46:29;100276.88;;;11.30;73.01
30949;BME280;17637;51.984;21.208;2022-10-16T04:48:56;100225.13;;;10.90;73.33
30949;BME280;17637;51.984;21.208;2022-10-16T04:51:23;100101.25;;;10.15;73.00
30949;BME280;17637;51.984;21.208;2022-10-16T04:53:50;100287.94;;;11.15;73.30
30949;BME280;17637;51.984;21.208;2022-10-16T04:56:17;100156.16;;;10.42;73.49
30949;BME280;17637;51.984;21.208;2022-10-16T04:58:45;98982.94;;;3.21;72.82
30949;BME280;17637;51.984;21.208;2022-10-16T05:01:12;100176.41;;;10.37;73.52
30949;BME280;17637;51.984;21.208;2022-10-16T05:03:40;100367.22;;;11.45;73.89
30949;BME280;17637;51.984;21.208;2022-10-16T05:06:07;100109.56;;;9.76;73.93
30949;BME280;17637;51.984;21.208;2022-10-16T05:08:34;100483.75;;;12.10;74.11
30949;BME280;17637;51.984;21.208;2022-10-16T05:11:01;100312.19;;;10.96;74.11
30949;BME280;17637;51.984;21.208;2022-10-16T05:13:28;100405.44;;;11.52;74.01
30949;BME280;17637;51.984;21.208;2022-10-16T05:15:55;99657.81;;;6.58;74.00
30949;BME280;17637;51.984;21.208;2022-10-16T05:18:22;100618.38;;;12.37;73.98
30949;BME280;17637;51.984;21.208;2022-10-16T05:20:49;100511.19;;;12.01;73.95
30949;BME280;17637;51.984;21.208;2022-10-16T05:23:16;100346.31;;;11.18;73.96
30949;BME280;17637;51.984;21.208;2022-10-16T05:25:43;100335.31;;;11.08;74.29
30949;BME280;17637;51.984;21.208;2022-10-16T05:28:18;100056.84;;;9.38;74.03
30949;BME280;17637;51.984;21.208;2022-10-16T05:30:45;100382.19;;;11.41;74.26
30949;BME280;17637;51.984;21.208;2022-10-16T05:33:12;100382.41;;;11.35;74.36
30949;BME280;17637;51.984;21.208;2022-10-16T05:35:40;100184.63;;;10.24;73.91
30949;BME280;17637;51.984;21.208;2022-10-16T05:38:07;100340.03;;;11.24;74.00
30949;BME280;17637;51.984;21.208;2022-10-16T05:40:34;100298.88;;;11.02;73.54
30949;BME280;17637;51.984;21.208;2022-10-16T05:43:01;100241.78;;;10.63;73.47
30949;BME280;17637;51.984;21.208;2022-10-16T05:45:28;100527.63;;;12.30;73.54
30949;BME280;17637;51.984;21.208;2022-10-16T05:47:55;100250.03;;;10.76;73.07
30949;BME280;17637;51.984;21.208;2022-10-16T05:50:22;100256.09;;;10.78;73.12
30949;BME280;17637;51.984;21.208;2022-10-16T05:52:49;99620.84;;;6.78;72.71
30949;BME280;17637;51.984;21.208;2022-10-16T05:55:16;100530.25;;;12.30;73.03
30949;BME280;17637;51.984;21.208;2022-10-16T05:57:43;100567.50;;;12.63;73.25
30949;BME280;17637;51.984;21.208;2022-10-16T06:00:10;100107.09;;;9.98;72.52
30949;BME280;17637;51.984;21.208;2022-10-16T06:02:38;100506.28;;;12.39;72.68
30949;BME280;17637;51.984;21.208;2022-10-16T06:05:05;100520.94;;;12.45;72.63
30949;BME280;17637;51.984;21.208;2022-10-16T06:07:35;100382.84;;;11.48;72.35
30949;BME280;17637;51.984;21.208;2022-10-16T06:10:03;100554.69;;;12.55;72.67
30949;BME280;17637;51.984;21.208;2022-10-16T06:12:31;100292.72;;;11.03;72.30
30949;BME280;17637;51.984;21.208;2022-10-16T06:14:58;100521.06;;;12.42;72.21
30949;BME280;17637;51.984;21.208;2022-10-16T06:17:24;100350.88;;;11.38;72.25
30949;BME280;17637;51.984;21.208;2022-10-16T06:19:52;100480.38;;;12.06;72.33
30949;BME280;17637;51.984;21.208;2022-10-16T06:22:19;99450.81;;;5.93;71.56
30949;BME280;17637;51.984;21.208;2022-10-16T06:24:46;100367.22;;;11.45;71.67
30949;BME280;17637;51.984;21.208;2022-10-16T06:27:14;99976.22;;;8.74;71.12
30949;BME280;17637;51.984;21.208;2022-10-16T06:29:41;100420.22;;;12.24;71.38
30949;BME280;17637;51.984;21.208;2022-10-16T06:32:09;100401.97;;;12.21;70.76
30949;BME280;17637;51.984;21.208;2022-10-16T06:34:36;100449.22;;;12.43;70.70
30949;BME280;17637;51.984;21.208;2022-10-16T06:37:08;100222.88;;;11.26;69.76
30949;BME280;17637;51.984;21.208;2022-10-16T06:39:35;99106.22;;;4.53;69.54
30949;BME280;17637;51.984;21.208;2022-10-16T06:42:02;100422.97;;;12.43;69.86
30949;BME280;17637;51.984;21.208;2022-10-16T06:44:29;98993.44;;;3.80;68.76
30949;BME280;17637;51.984;21.208;2022-10-16T06:46:56;100561.28;;;13.32;69.62
30949;BME280;17637;51.984;21.208;2022-10-16T06:49:23;99215.31;;;5.06;68.98
30949;BME280;17637;51.984;21.208;2022-10-16T06:51:50;100281.56;;;11.67;69.26
30949;BME280;17637;51.984;21.208;2022-10-16T06:54:17;100420.81;;;12.52;69.60
30949;BME280;17637;51.984;21.208;2022-10-16T06:56:44;100170.97;;;10.90;69.63
30949;BME280;17637;51.984;21.208;2022-10-16T06:59:11;100433.75;;;12.57;69.46
30949;BME280;17637;51.984;21.208;2022-10-16T07:01:38;100022.25;;;10.06;69.08
30949;BME280;17637;51.984;21.208;2022-10-16T07:04:05;100274.25;;;11.76;68.90
30949;BME280;17637;51.984;21.208;2022-10-16T07:06:33;100625.38;;;13.92;68.62
30949;BME280;17637;51.984;21.208;2022-10-16T07:09:05;100537.34;;;13.38;68.24
30949;BME280;17637;51.984;21.208;2022-10-16T07:11:33;100571.97;;;13.70;68.13
30949;BME280;17637;51.984;21.208;2022-10-16T07:14:00;100395.47;;;12.51;68.46
30949;BME280;17637;51.984;21.208;2022-10-16T07:16:29;100279.31;;;12.02;68.39
30949;BME280;17637;51.984;21.208;2022-10-16T07:19:00;99734.56;;;8.92;67.56
30949;BME280;17637;51.984;21.208;2022-10-16T07:21:30;99946.50;;;10.24;67.51
30949;BME280;17637;51.984;21.208;2022-10-16T07:23:59;100627.66;;;14.60;67.61
30949;BME280;17637;51.984;21.208;2022-10-16T07:26:30;100642.22;;;14.68;66.74
30949;BME280;17637;51.984;21.208;2022-10-16T07:28:58;99745.63;;;9.45;66.91
30949;BME280;17637;51.984;21.208;2022-10-16T07:31:25;99962.59;;;10.61;66.83
30949;BME280;17637;51.984;21.208;2022-10-16T07:33:52;100635.38;;;14.83;66.79
30949;BME280;17637;51.984;21.208;2022-10-16T07:36:20;100512.41;;;14.06;66.26
30949;BME280;17637;51.984;21.208;2022-10-16T07:38:47;99593.63;;;7.95;65.78
30949;BME280;17637;51.984;21.208;2022-10-16T07:41:19;100653.03;;;15.00;66.68
30949;BME280;17637;51.984;21.208;2022-10-16T07:43:53;100650.91;;;15.08;66.21
30949;BME280;17637;51.984;21.208;2022-10-16T07:46:22;100473.56;;;13.93;66.27
30949;BME280;17637;51.984;21.208;2022-10-16T07:48:50;100605.88;;;14.75;66.28
30949;BME280;17637;51.984;21.208;2022-10-16T07:51:19;100619.47;;;15.04;66.38
30949;BME280;17637;51.984;21.208;2022-10-16T07:53:47;100414.56;;;13.78;65.62
30949;BME280;17637;51.984;21.208;2022-10-16T07:56:15;100618.84;;;14.99;66.50
30949;BME280;17637;51.984;21.208;2022-10-16T07:58:42;100097.38;;;11.61;65.98
30949;BME280;17637;51.984;21.208;2022-10-16T08:01:12;100190.13;;;12.62;66.09
30949;BME280;17637;51.984;21.208;2022-10-16T08:03:48;100637.09;;;15.40;65.42
30949;BME280;17637;51.984;21.208;2022-10-16T08:06:18;100653.09;;;15.54;65.64
30949;BME280;17637;51.984;21.208;2022-10-16T08:08:50;100491.94;;;14.70;64.30
30949;BME280;17637;51.984;21.208;2022-10-16T08:11:17;100218.09;;;13.21;65.28
30949;BME280;17637;51.984;21.208;2022-10-16T08:13:44;100668.75;;;15.93;64.30
30949;BME280;17637;51.984;21.208;2022-10-16T08:16:12;99906.84;;;11.41;63.39
30949;BME280;17637;51.984;21.208;2022-10-16T08:18:40;100656.53;;;16.08;63.39
30949;BME280;17637;51.984;21.208;2022-10-16T08:21:13;100477.25;;;15.18;63.27
30949;BME280;17637;51.984;21.208;2022-10-16T08:23:47;100648.72;;;16.40;63.16
30949;BME280;17637;51.984;21.208;2022-10-16T08:26:22;100439.19;;;15.22;61.99
30949;BME280;17637;51.984;21.208;2022-10-16T08:28:50;100499.09;;;15.55;62.26
30949;BME280;17637;51.984;21.208;2022-10-16T08:31:18;100300.81;;;14.44;62.32
30949;BME280;17637;51.984;21.208;2022-10-16T08:33:45;100492.50;;;15.64;61.76
30949;BME280;17637;51.984;21.208;2022-10-16T08:36:15;100662.03;;;16.72;62.73
30949;BME280;17637;51.984;21.208;2022-10-16T08:38:42;100453.34;;;15.72;60.95
30949;BME280;17637;51.984;21.208;2022-10-16T08:49:02;99760.41;;;12.25;59.41
30949;BME280;17637;51.984;21.208;2022-10-16T08:51:34;100654.41;;;17.61;59.82
30949;BME280;17637;51.984;21.208;2022-10-16T08:54:22;100650.88;;;17.60;59.98
30949;BME280;17637;51.984;21.208;2022-10-16T08:56:50;100338.97;;;15.87;60.34
30949;BME280;17637;51.984;21.208;2022-10-16T08:59:18;100491.22;;;16.99;59.42
30949;BME280;17637;51.984;21.208;2022-10-16T09:01:48;100558.63;;;17.38;59.73
30949;BME280;17637;51.984;21.208;2022-10-16T09:10:11;100560.50;;;17.36;59.36
30949;BME280;17637;51.984;21.208;2022-10-16T09:12:51;100549.34;;;17.31;60.01
30949;BME280;17637;51.984;21.208;2022-10-16T09:16:11;100669.66;;;17.87;60.21
30949;BME280;17637;51.984;21.208;2022-10-16T09:18:20;100509.09;;;16.80;60.49
30949;BME280;17637;51.984;21.208;2022-10-16T09:21:17;100676.50;;;17.76;60.58
30949;BME280;17637;51.984;21.208;2022-10-16T09:23:45;100692.66;;;17.71;60.87
30949;BME280;17637;51.984;21.208;2022-10-16T09:26:14;100682.06;;;17.55;60.96
30949;BME280;17637;51.984;21.208;2022-10-16T09:28:43;100610.84;;;17.20;61.17
30949;BME280;17637;51.984;21.208;2022-10-16T09:31:19;100674.56;;;17.63;61.80
30949;BME280;17637;51.984;21.208;2022-10-16T09:33:55;100673.69;;;17.63;61.56
30949;BME280;17637;51.984;21.208;2022-10-16T09:36:25;100672.00;;;17.62;61.64
30949;BME280;17637;51.984;21.208;2022-10-16T09:39:05;100537.66;;;16.57;61.02
30949;BME280;17637;51.984;21.208;2022-10-16T09:41:38;100511.72;;;16.48;61.44
30949;BME280;17637;51.984;21.208;2022-10-16T09:44:26;100621.31;;;17.22;61.69
30949;BME280;17637;51.984;21.208;2022-10-16T09:47:16;100604.19;;;17.13;61.05
30949;BME280;17637;51.984;21.208;2022-10-16T09:52:19;100608.41;;;17.32;61.65
30949;BME280;17637;51.984;21.208;2022-10-16T09:54:58;100477.34;;;16.64;61.73
30949;BME280;17637;51.984;21.208;2022-10-16T09:57:26;100387.28;;;16.05;61.25
30949;BME280;17637;51.984;21.208;2022-10-16T09:59:57;100649.22;;;17.90;60.35
30949;BME280;17637;51.984;21.208;2022-10-16T10:02:36;100442.03;;;16.81;59.87
30949;BME280;17637;51.984;21.208;2022-10-16T10:05:27;100303.50;;;16.23;58.98
30949;BME280;17637;51.984;21.208;2022-10-16T10:08:00;100661.88;;;18.43;59.25
30949;BME280;17637;51.984;21.208;2022-10-16T10:10:30;100648.13;;;18.51;59.64
30949;BME280;17637;51.984;21.208;2022-10-16T10:12:58;100650.22;;;18.60;59.11
30949;BME280;17637;51.984;21.208;2022-10-16T10:15:34;100603.06;;;18.37;58.54
30949;BME280;17637;51.984;21.208;2022-10-16T10:18:19;100658.56;;;18.83;58.67
30949;BME280;17637;51.984;21.208;2022-10-16T10:20:59;100619.81;;;18.51;58.48
30949;BME280;17637;51.984;21.208;2022-10-16T10:23:28;100411.72;;;17.45;59.21
30949;BME280;17637;51.984;21.208;2022-10-16T10:28:54;100652.84;;;19.03;58.84
30949;BME280;17637;51.984;21.208;2022-10-16T10:31:47;100663.31;;;19.19;58.76
30949;BME280;17637;51.984;21.208;2022-10-16T10:40:43;100598.50;;;19.09;57.00
30949;BME280;17637;51.984;21.208;2022-10-16T10:54:54;100542.97;;;18.93;57.14
30949;BME280;17637;51.984;21.208;2022-10-16T11:00:28;100638.19;;;19.65;55.67
30949;BME280;17637;51.984;21.208;2022-10-16T11:03:13;100632.47;;;19.58;55.11
30949;BME280;17637;51.984;21.208;2022-10-16T11:05:54;100640.75;;;19.66;55.28
30949;BME280;17637;51.984;21.208;2022-10-16T11:08:29;100644.78;;;19.59;55.62
30949;BME280;17637;51.984;21.208;2022-10-16T11:13:42;100647.09;;;19.51;56.61
30949;BME280;17637;51.984;21.208;2022-10-16T11:16:20;100636.03;;;19.44;56.76
30949;BME280;17637;51.984;21.208;2022-10-16T11:22:01;100488.84;;;18.54;56.31
30949;BME280;17637;51.984;21.208;2022-10-16T11:24:55;100637.41;;;19.50;55.93
30949;BME280;17637;51.984;21.208;2022-10-16T11:30:22;100624.34;;;19.74;56.09
30949;BME280;17637;51.984;21.208;2022-10-16T11:35:43;100626.94;;;19.61;55.89
30949;BME280;17637;51.984;21.208;2022-10-16T11:41:28;100640.97;;;19.63;55.60
30949;BME280;17637;51.984;21.208;2022-10-16T11:47:24;100643.78;;;19.74;56.14
30949;BME280;17637;51.984;21.208;2022-10-16T11:53:14;100644.88;;;19.97;55.92
30949;BME280;17637;51.984;21.208;2022-10-16T11:55:45;100667.13;;;20.09;55.95
30949;BME280;17637;51.984;21.208;2022-10-16T11:58:24;100545.91;;;19.28;54.89
30949;BME280;17637;51.984;21.208;2022-10-16T12:01:13;100428.75;;;18.67;55.19
30949;BME280;17637;51.984;21.208;2022-10-16T12:09:50;100496.00;;;18.66;56.18
30949;BME280;17637;51.984;21.208;2022-10-16T12:15:25;100442.31;;;18.36;56.32
30949;BME280;17637;51.984;21.208;2022-10-16T12:18:23;100566.41;;;19.26;56.42
30949;BME280;17637;51.984;21.208;2022-10-16T12:20:55;100586.69;;;19.27;56.66
30949;BME280;17637;51.984;21.208;2022-10-16T12:23:31;100441.41;;;18.49;56.80
30949;BME280;17637;51.984;21.208;2022-10-16T12:26:00;100177.50;;;16.82;57.04
30949;BME280;17637;51.984;21.208;2022-10-16T12:28:30;100625.41;;;19.71;56.57
30949;BME280;17637;51.984;21.208;2022-10-16T12:31:03;100605.84;;;19.45;56.75
30949;BME280;17637;51.984;21.208;2022-10-16T12:33:34;100638.88;;;19.68;56.57
30949;BME280;17637;51.984;21.208;2022-10-16T12:36:07;100316.19;;;17.77;56.85
30949;BME280;17637;51.984;21.208;2022-10-16T12:38:46;99872.34;;;14.75;56.42
30949;BME280;17637;51.984;21.208;2022-10-16T12:41:28;100338.16;;;17.65;56.82
30949;BME280;17637;51.984;21.208;2022-10-16T12:43:56;100429.09;;;18.21;57.20
30949;BME280;17637;51.984;21.208;2022-10-16T12:51:40;100649.75;;;19.78;57.15
30949;BME280;17637;51.984;21.208;2022-10-16T12:54:16;100604.72;;;19.49;56.07
30949;BME280;17637;51.984;21.208;2022-10-16T12:59:50;100653.16;;;19.93;56.50
30949;BME280;17637;51.984;21.208;2022-10-16T13:05:32;100510.03;;;19.23;56.13
30949;BME280;17637;51.984;21.208;2022-10-16T13:11:16;100523.44;;;19.34;55.44
30949;BME280;17637;51.984;21.208;2022-10-16T13:19:24;100663.28;;;20.00;56.34
30949;BME280;17637;51.984;21.208;2022-10-16T13:22:19;100572.38;;;19.30;55.79
30949;BME280;17637;51.984;21.208;2022-10-16T13:27:45;100663.16;;;19.89;56.34
30949;BME280;17637;51.984;21.208;2022-10-16T13:30:19;100654.00;;;19.93;56.92
30949;BME280;17637;51.984;21.208;2022-10-16T13:33:12;100612.50;;;19.65;56.34
30949;BME280;17637;51.984;21.208;2022-10-16T13:35:52;100669.34;;;19.90;56.35
30949;BME280;17637;51.984;21.208;2022-10-16T13:38:25;100675.63;;;20.02;57.10
30949;BME280;17637;51.984;21.208;2022-10-16T13:41:01;100377.44;;;18.14;57.32
30949;BME280;17637;51.984;21.208;2022-10-16T13:43:44;100677.00;;;19.94;57.24
30949;BME280;17637;51.984;21.208;2022-10-16T13:46:14;100685.88;;;19.81;57.15
30949;BME280;17637;51.984;21.208;2022-10-16T13:48:41;100499.59;;;18.38;58.04
30949;BME280;17637;51.984;21.208;2022-10-16T13:51:15;100298.97;;;17.43;58.35
30949;BME280;17637;51.984;21.208;2022-10-16T13:53:44;100523.03;;;18.59;58.46
30949;BME280;17637;51.984;21.208;2022-10-16T13:56:26;100695.47;;;19.56;58.49
30949;BME280;17637;51.984;21.208;2022-10-16T13:59:01;100626.94;;;19.07;57.75
30949;BME280;17637;51.984;21.208;2022-10-16T14:01:32;100692.31;;;19.36;58.58
30949;BME280;17637;51.984;21.208;2022-10-16T14:04:05;100415.72;;;17.53;59.21
30949;BME280;17637;51.984;21.208;2022-10-16T14:06:35;100714.78;;;19.31;58.87
30949;BME280;17637;51.984;21.208;2022-10-16T14:09:29;100698.59;;;19.21;59.35
30949;BME280;17637;51.984;21.208;2022-10-16T14:12:08;100591.97;;;18.44;59.31
30949;BME280;17637;51.984;21.208;2022-10-16T14:14:43;100481.03;;;17.82;59.40
30949;BME280;17637;51.984;21.208;2022-10-16T14:17:31;100685.53;;;19.04;59.13
30949;BME280;17637;51.984;21.208;2022-10-16T14:20:02;100692.25;;;19.09;59.32
30949;BME280;17637;51.984;21.208;2022-10-16T14:22:36;100689.59;;;19.09;59.71
30949;BME280;17637;51.984;21.208;2022-10-16T14:30:24;100706.41;;;19.10;60.36
30949;BME280;17637;51.984;21.208;2022-10-16T14:32:59;100662.66;;;18.88;60.49
30949;BME280;17637;51.984;21.208;2022-10-16T14:38:00;100703.66;;;18.97;60.71
30949;BME280;17637;51.984;21.208;2022-10-16T14:40:30;100676.53;;;18.63;60.80
30949;BME280;17637;51.984;21.208;2022-10-16T14:42:59;100581.38;;;18.16;61.20
30949;BME280;17637;51.984;21.208;2022-10-16T14:45:30;99335.28;;;10.58;60.51
30949;BME280;17637;51.984;21.208;2022-10-16T14:47:59;100710.41;;;18.88;61.30
30949;BME280;17637;51.984;21.208;2022-10-16T14:50:27;100037.34;;;14.77;61.20
30949;BME280;17637;51.984;21.208;2022-10-16T14:52:55;100715.16;;;18.83;61.57
30949;BME280;17637;51.984;21.208;2022-10-16T14:55:23;100424.91;;;17.02;61.50